Time;durP1;ratioP1;P1;durP2;ratioP2;P2;SDS_P1;SDS_P2;PMS_P1;PMS_P2;Temp;Humidity;BMP_temperature;BMP_pressure;BME280_temperature;BME280_humidity;BME280_pressure;Samples;Min_cycle;Max_cycle;Signal;HPM_P1;HPM_P2
2021/08/28 00:01:09;;;;;;;;;3.00;3.00;;;;;18.55;51.25;101834.91;5097099;27;45351;-90
2021/08/28 00:03:34;;;;;;;;;3.33;2.33;;;;;18.44;51.37;101818.91;5080026;28;45450;-92
2021/08/28 00:06:00;;;;;;;;;4.00;2.67;;;;;18.46;51.73;101825.13;5079945;28;48373;-91
2021/08/28 00:08:25;;;;;;;;;2.33;1.33;;;;;18.34;51.55;101810.03;5084870;28;45207;-92
2021/08/28 00:10:53;;;;;;;;;2.33;2.33;;;;;18.55;51.67;101846.44;5084654;28;45305;-91
2021/08/28 00:13:18;;;;;;;;;2.00;2.00;;;;;18.40;51.68;101829.53;5084837;28;45424;-91
2021/08/28 00:15:49;;;;;;;;;3.33;1.67;;;;;18.50;52.22;101849.09;5100208;27;47172;-91
2021/08/28 00:18:15;;;;;;;;;3.00;2.00;;;;;18.33;52.34;101825.09;5101174;27;45564;-91
2021/08/28 00:20:40;;;;;;;;;2.00;2.00;;;;;18.40;52.22;101836.66;5100281;27;45258;-90
2021/08/28 00:23:07;;;;;;;;;2.33;2.00;;;;;18.33;52.41;101826.88;5084901;27;45525;-92
2021/08/28 00:25:34;;;;;;;;;4.33;2.00;;;;;18.21;52.44;101815.28;5100829;27;47209;-92
2021/08/28 00:27:59;;;;;;;;;2.67;2.67;;;;;18.25;52.81;101821.53;5100489;27;45464;-90
2021/08/28 00:30:25;;;;;;;;;2.00;2.00;;;;;18.36;52.81;101837.53;5087251;28;45391;-90
2021/08/28 00:32:51;;;;;;;;;8.67;4.67;;;;;18.17;52.73;101810.84;5105779;27;45442;-90
2021/08/28 00:35:16;;;;;;;;;8.33;2.00;;;;;18.32;53.02;101843.75;5100894;28;47082;-90
2021/08/28 00:37:42;;;;;;;;;2.33;1.33;;;;;18.31;53.11;101841.94;5123402;27;44772;-91
2021/08/28 00:40:08;;;;;;;;;5.00;3.00;;;;;18.19;53.44;101827.72;5120030;27;44703;-90
2021/08/28 00:42:45;;;;;;;;;3.67;2.00;;;;;18.14;53.03;101824.13;5110141;27;45244;-91
2021/08/28 00:45:11;;;;;;;;;3.33;3.00;;;;;18.18;53.46;101841.91;5088368;28;47172;-90
2021/08/28 00:47:38;;;;;;;;;6.00;1.67;;;;;18.23;53.57;101852.59;5101984;28;44675;-92
2021/08/28 00:50:04;;;;;;;;;2.33;2.00;;;;;18.15;53.72;101842.75;5106247;27;45382;-90
2021/08/28 00:52:30;;;;;;;;;2.67;2.00;;;;;18.10;53.60;101839.19;5124314;27;44938;-90
2021/08/28 00:54:55;;;;;;;;;3.00;2.00;;;;;18.01;53.88;101817.88;5123675;27;47063;-91
2021/08/28 00:57:21;;;;;;;;;4.67;3.00;;;;;17.94;53.96;101809.88;5123606;27;45481;-91
2021/08/28 00:59:50;;;;;;;;;2.33;1.67;;;;;18.08;53.96;101829.44;5106657;27;45443;-92
2021/08/28 01:02:18;;;;;;;;;3.67;2.00;;;;;17.99;54.56;101815.22;5108603;27;44744;-91
2021/08/28 01:05:05;;;;;;;;;3.00;3.00;;;;;17.91;54.42;101801.88;5106745;27;45476;-90
2021/08/28 01:07:59;;;;;;;;;2.67;2.00;;;;;18.04;54.56;101839.19;5099955;27;44800;-91
2021/08/28 01:10:33;;;;;;;;;1.00;1.00;;;;;17.87;54.36;101815.16;5045701;28;45313;-91
2021/08/28 01:13:01;;;;;;;;;4.00;2.00;;;;;17.88;54.68;101816.94;5041044;28;45393;-92
2021/08/28 01:15:27;;;;;;;;;2.67;1.67;;;;;17.86;54.94;101814.25;5041546;28;48336;-92
2021/08/28 01:17:54;;;;;;;;;3.00;3.00;;;;;17.95;54.86;101826.72;5043031;28;46055;-91
2021/08/28 01:20:24;;;;;;;;;5.00;3.00;;;;;17.88;54.83;101827.56;5044325;28;45510;-92
2021/08/28 01:22:51;;;;;;;;;5.00;3.00;;;;;17.83;54.98;101820.44;5046701;28;45369;-93
2021/08/28 01:25:23;;;;;;;;;2.67;2.00;;;;;17.83;55.29;101830.19;5040615;28;46847;-91
2021/08/28 01:27:55;;;;;;;;;4.33;3.00;;;;;17.80;54.94;101815.13;5039954;28;45383;-92
2021/08/28 01:30:21;;;;;;;;;3.00;2.00;;;;;17.74;55.42;101803.56;5039825;28;45479;-91
2021/08/28 01:32:47;;;;;;;;;3.67;2.00;;;;;17.86;55.31;101822.25;5039696;28;45244;-92
2021/08/28 01:35:14;;;;;;;;;3.00;2.00;;;;;17.70;55.26;101795.56;5039126;28;47887;-91
2021/08/28 01:37:43;;;;;;;;;3.00;1.67;;;;;17.73;55.48;101807.09;5040374;28;45534;-91
2021/08/28 01:40:11;;;;;;;;;4.00;2.67;;;;;17.69;55.75;101796.47;5041947;28;45448;-91
2021/08/28 01:42:38;;;;;;;;;3.33;3.00;;;;;17.71;55.24;101809.75;5040921;28;45299;-92
2021/08/28 01:45:07;;;;;;;;;3.00;2.00;;;;;17.65;55.58;101799.09;5040372;28;47256;-92
2021/08/28 01:47:33;;;;;;;;;2.00;2.00;;;;;17.69;56.15;101796.47;5076368;27;46211;-92
2021/08/28 01:50:00;;;;;;;;;2.67;2.67;;;;;17.62;55.58;101793.78;5084617;28;45319;-91
2021/08/28 01:52:26;;;;;;;;;3.33;3.00;;;;;17.63;55.74;101800.84;5107148;27;44732;-92
2021/08/28 01:54:53;;;;;;;;;3.50;3.00;;;;;17.70;55.83;101815.97;5110555;27;47474;-92
2021/08/28 01:57:21;;;;;;;;;3.00;3.00;;;;;17.64;55.99;101808.84;5087532;28;45175;-91
2021/08/28 01:59:46;;;;;;;;;2.67;1.00;;;;;17.54;55.90;101797.28;5118652;27;44850;-92
2021/08/28 02:02:12;;;;;;;;;2.00;2.00;;;;;17.62;56.17;101812.38;5103794;27;44764;-92
2021/08/28 02:04:40;;;;;;;;;2.00;2.00;;;;;17.56;56.26;101813.22;5101323;28;47281;-92
2021/08/28 02:07:12;;;;;;;;;3.67;2.33;;;;;17.60;56.15;101830.97;5102464;28;45000;-90
2021/08/28 02:09:41;;;;;;;;;3.00;2.00;;;;;17.47;56.02;101812.28;5095105;28;45421;-93
2021/08/28 02:12:19;;;;;;;;;2.00;2.00;;;;;17.44;56.67;101811.41;5085722;28;45535;-91
2021/08/28 02:14:58;;;;;;;;;3.00;2.00;;;;;17.48;56.34;101830.03;5104027;27;47418;-92
2021/08/28 02:17:26;;;;;;;;;4.00;3.00;;;;;17.34;56.29;101805.16;5104676;27;45254;-91
2021/08/28 02:19:58;;;;;;;;;2.33;1.00;;;;;17.32;56.57;101810.44;5123291;27;44737;-92
2021/08/28 02:22:31;;;;;;;;;2.33;2.00;;;;;17.41;56.60;101830.00;5107499;27;45345;-91
2021/08/28 02:25:10;;;;;;;;;3.00;3.00;;;;;17.37;56.52;101821.09;5106208;27;47117;-91
2021/08/28 02:27:53;;;;;;;;;4.00;3.00;;;;;17.29;56.62;101815.75;5122195;27;44997;-91
2021/08/28 02:30:23;;;;;;;;;3.33;2.00;;;;;17.26;56.38;101802.41;5122319;27;44754;-91
2021/08/28 02:32:51;;;;;;;;;3.33;3.00;;;;;17.21;56.92;101815.69;5106671;27;45454;-91
2021/08/28 02:35:19;;;;;;;;;3.33;2.00;;;;;17.33;56.97;101833.47;5123663;27;47203;-92
2021/08/28 02:37:47;;;;;;;;;3.67;3.00;;;;;17.20;57.17;101829.84;5121423;27;44828;-91
2021/08/28 02:40:16;;;;;;;;;4.33;3.00;;;;;17.26;57.01;101842.28;5105396;27;44829;-92
2021/08/28 02:42:44;;;;;;;;;4.00;3.00;;;;;17.12;56.95;101836.84;5106153;27;45346;-90
2021/08/28 02:45:15;;;;;;;;;3.00;2.67;;;;;17.16;57.66;101838.66;5123607;27;47096;-90
2021/08/28 02:47:44;;;;;;;;;2.33;2.00;;;;;17.02;57.49;101825.25;5122386;27;45065;-91
2021/08/28 02:50:15;;;;;;;;;5.33;2.00;;;;;16.96;57.50;101819.91;5106121;27;44786;-92
2021/08/28 02:52:43;;;;;;;;;2.00;2.00;;;;;17.02;57.66;101835.88;5102715;28;44861;-91
2021/08/28 02:55:10;;;;;;;;;3.67;2.67;;;;;16.97;58.10;101822.56;5105704;27;45177;-92
2021/08/28 02:57:39;;;;;;;;;7.00;2.00;;;;;16.92;57.72;101813.63;5104649;27;44741;-88
2021/08/28 03:00:05;;;;;;;;;2.67;2.00;;;;;17.02;57.89;101841.19;5123807;27;44811;-91
2021/08/28 03:02:34;;;;;;;;;6.00;2.00;;;;;16.93;57.69;101826.06;5120407;27;44777;-91
2021/08/28 03:05:00;;;;;;;;;3.00;3.00;;;;;16.96;57.94;101834.06;5108672;27;45380;-90
2021/08/28 03:07:29;;;;;;;;;4.00;2.33;;;;;16.81;58.15;101804.72;5124674;27;44809;-91
2021/08/28 03:09:56;;;;;;;;;5.00;3.00;;;;;16.92;58.36;101829.56;5107905;27;44843;-91
2021/08/28 03:12:31;;;;;;;;;;;;;;;;;;;;;
2021/08/28 03:14:57;;;;;;;;;3.67;2.33;;;;;16.84;58.32;101833.94;5106891;27;74243;-91
2021/08/28 03:17:24;;;;;;;;;6.67;4.33;;;;;16.74;58.00;101822.34;5107342;27;44787;-92
2021/08/28 03:19:51;;;;;;;;;7.33;3.00;;;;;16.64;57.98;101809.00;5124759;27;45863;-91
2021/08/28 03:22:20;;;;;;;;;3.33;2.33;;;;;16.74;58.23;101825.91;5124700;27;44822;-91
2021/08/28 03:24:51;;;;;;;;;2.33;2.33;;;;;16.54;58.18;101797.38;5124596;27;46881;-90
2021/08/28 03:27:19;;;;;;;;;3.67;3.00;;;;;16.60;58.55;101812.50;5122786;27;44774;-92
2021/08/28 03:29:46;;;;;;;;;3.33;2.67;;;;;16.65;58.39;101831.09;5120130;27;44784;-92
2021/08/28 03:32:13;;;;;;;;;6.00;4.33;;;;;16.53;58.26;101814.22;5119123;27;44750;-92
2021/08/28 03:34:41;;;;;;;;;4.67;2.67;;;;;16.49;58.40;101809.75;5099165;28;47063;-92
2021/08/28 03:37:08;;;;;;;;;4.33;3.33;;;;;16.62;58.55;101836.41;5095057;28;45327;-91
2021/08/28 03:39:38;;;;;;;;;5.00;2.00;;;;;16.55;58.24;101825.72;5112977;27;45452;-93
2021/08/28 03:42:03;;;;;;;;;4.67;2.67;;;;;16.52;58.65;101820.38;5116584;27;45259;-92
2021/08/28 03:44:29;;;;;;;;;3.00;3.00;;;;;16.42;58.91;101807.88;5116968;27;47984;-91
2021/08/28 03:46:54;;;;;;;;;4.00;3.00;;;;;16.40;58.57;101809.63;5094497;27;45375;-93
2021/08/28 03:49:25;;;;;;;;;2.00;2.00;;;;;16.51;59.13;101831.88;5107610;27;45200;-92
2021/08/28 03:51:50;;;;;;;;;4.67;3.67;;;;;16.37;58.77;101809.63;5084870;28;45338;-92
2021/08/28 03:54:16;;;;;;;;;5.67;3.00;;;;;16.43;59.04;101822.94;5100285;27;47202;-92
2021/08/28 03:56:44;;;;;;;;;3.00;2.00;;;;;16.42;59.31;101818.50;5083629;28;45413;-91
2021/08/28 03:59:09;;;;;;;;;3.67;3.33;;;;;16.34;58.92;101805.16;5101151;27;45287;-92
2021/08/28 04:01:37;;;;;;;;;4.33;3.00;;;;;16.33;59.29;101803.38;5101326;27;45576;-92
2021/08/28 04:04:03;;;;;;;;;5.67;4.00;;;;;16.28;59.17;101803.34;5100977;27;48418;-92
2021/08/28 04:06:32;;;;;;;;;4.00;3.00;;;;;16.25;59.34;101794.44;5082634;27;45325;-92
2021/08/28 04:08:57;;;;;;;;;3.00;2.33;;;;;16.32;59.39;101815.78;5100566;27;45422;-91
2021/08/28 04:11:27;;;;;;;;;3.33;3.00;;;;;16.30;59.73;101817.50;5100588;27;45337;-93
2021/08/28 04:13:55;;;;;;;;;3.00;3.00;;;;;16.20;59.43;101792.63;5082847;28;47540;-92
2021/08/28 04:16:22;;;;;;;;;4.00;4.00;;;;;16.29;59.43;101823.69;5102090;27;45445;-92
2021/08/28 04:18:48;;;;;;;;;2.00;2.00;;;;;16.20;59.63;101811.19;5088118;28;45435;-90
2021/08/28 04:21:17;;;;;;;;;5.00;2.00;;;;;16.20;59.83;101816.50;5086221;27;45478;-90
2021/08/28 04:23:42;;;;;;;;;3.67;3.67;;;;;16.16;59.81;101806.72;5100448;27;47068;-90
2021/08/28 04:26:15;;;;;;;;;4.00;2.00;;;;;16.13;60.09;101806.72;5099905;27;45353;-91
2021/08/28 04:28:40;;;;;;;;;4.00;3.00;;;;;16.17;60.06;101815.59;5099973;27;45446;-92
2021/08/28 04:31:06;;;;;;;;;3.00;2.00;;;;;16.07;60.07;101802.22;5082771;28;45337;-92
2021/08/28 04:33:42;;;;;;;;;;;;;;;;;;;;;
2021/08/28 04:36:07;;;;;;;;;2.00;2.00;;;;;16.06;59.91;101810.16;5082817;27;73411;-91
2021/08/28 04:38:33;;;;;;;;;4.00;3.00;;;;;16.04;60.18;101807.47;5099319;27;45271;-92
2021/08/28 04:40:59;;;;;;;;;6.00;3.67;;;;;16.18;60.36;101833.28;5099859;27;44927;-92
2021/08/28 04:43:26;;;;;;;;;2.67;2.00;;;;;16.07;60.38;101817.25;5100504;27;47386;-92
2021/08/28 04:45:52;;;;;;;;;4.00;3.00;;;;;16.12;60.27;101825.28;5100212;27;45479;-92
2021/08/28 04:48:20;;;;;;;;;8.00;3.33;;;;;16.16;60.50;101838.56;5083055;28;45346;-91
2021/08/28 04:50:46;;;;;;;;;6.00;2.00;;;;;16.01;60.47;101817.16;5098996;27;44882;-92
2021/08/28 04:53:12;;;;;;;;;3.00;3.00;;;;;16.07;60.46;101828.75;5081311;28;46930;-92
2021/08/28 04:55:39;;;;;;;;;6.67;4.00;;;;;16.04;60.81;101827.81;5080743;28;45375;-92
2021/08/28 04:58:06;;;;;;;;;6.67;4.00;;;;;15.92;60.73;101810.84;5082611;28;45447;-92
2021/08/28 05:00:34;;;;;;;;;5.00;2.00;;;;;16.06;60.68;101832.25;5100854;27;45421;-92
2021/08/28 05:02:59;;;;;;;;;4.00;4.00;;;;;16.03;60.81;101837.50;5105458;27;48106;-91
2021/08/28 05:05:35;;;;;;;;;3.67;3.00;;;;;15.93;60.93;101815.28;5105097;27;45347;-92
2021/08/28 05:08:00;;;;;;;;;3.67;2.00;;;;;15.89;61.45;101813.44;5088663;28;45424;-92
2021/08/28 05:10:36;;;;;;;;;;;;;;;;;;;;;
2021/08/28 05:13:01;;;;;;;;;2.33;2.33;;;;;16.06;61.22;101842.88;5083614;27;75472;-92
2021/08/28 05:15:28;;;;;;;;;3.67;3.00;;;;;16.08;60.99;101845.53;5114041;27;44744;-91
2021/08/28 05:17:53;;;;;;;;;6.67;3.00;;;;;16.04;61.45;101839.31;5115436;27;45186;-92
2021/08/28 05:20:19;;;;;;;;;8.67;3.00;;;;;15.95;61.02;101823.22;5102870;28;45552;-91
2021/08/28 05:22:48;;;;;;;;;4.33;3.00;;;;;16.11;61.42;101844.69;5120534;27;46955;-92
2021/08/28 05:25:15;;;;;;;;;4.00;4.00;;;;;16.10;61.28;101843.78;5119715;27;45484;-93
2021/08/28 05:27:40;;;;;;;;;5.00;4.00;;;;;15.98;61.20;101832.16;5103652;28;45323;-92
2021/08/28 05:30:08;;;;;;;;;5.00;2.67;;;;;16.00;61.17;101829.50;5104269;28;44855;-90
2021/08/28 05:32:34;;;;;;;;;5.00;2.67;;;;;16.01;61.20;101825.09;5120931;27;47538;-91
2021/08/28 05:34:59;;;;;;;;;3.67;3.67;;;;;16.09;61.57;101836.72;5103289;28;44800;-92
2021/08/28 05:37:35;;;;;;;;;;;;;;;;;;;;;
2021/08/28 05:40:00;;;;;;;;;5.67;3.00;;;;;16.00;61.62;101812.69;5084485;27;63936;-90
2021/08/28 05:42:28;;;;;;;;;3.00;3.00;;;;;16.08;61.37;101830.53;5098268;27;47017;-91
2021/08/28 05:44:54;;;;;;;;;6.00;3.67;;;;;16.07;61.67;101823.44;5081929;28;45274;-90
2021/08/28 05:47:22;;;;;;;;;5.33;3.00;;;;;16.18;61.66;101836.81;5097523;27;45274;-91
2021/08/28 05:49:47;;;;;;;;;3.33;3.00;;;;;16.16;61.74;101837.69;5097325;27;45470;-90
2021/08/28 05:52:13;;;;;;;;;2.00;2.00;;;;;16.15;61.57;101830.59;5080473;27;46597;-90
2021/08/28 05:54:41;;;;;;;;;6.00;4.00;;;;;16.28;61.44;101856.41;5096785;27;45277;-91
2021/08/28 05:57:06;;;;;;;;;3.00;3.00;;;;;16.29;61.60;101852.88;5096492;27;45452;-91
2021/08/28 05:59:32;;;;;;;;;3.67;3.33;;;;;16.16;61.62;101832.38;5096228;27;45424;-91
2021/08/28 06:01:58;;;;;;;;;4.67;3.00;;;;;16.34;61.39;101854.69;5098054;27;46943;-92
2021/08/28 06:04:23;;;;;;;;;5.00;4.00;;;;;16.32;61.40;101858.22;5114504;27;45432;-91
2021/08/28 06:06:49;;;;;;;;;5.33;3.00;;;;;16.33;61.58;101851.13;5116494;27;45261;-91
2021/08/28 06:09:17;;;;;;;;;6.00;3.67;;;;;16.37;61.48;101857.38;5116583;27;44788;-91
2021/08/28 06:11:42;;;;;;;;;6.00;3.00;;;;;16.20;61.33;101828.91;5086518;28;45513;-91
2021/08/28 06:14:10;;;;;;;;;5.00;3.00;;;;;16.25;61.51;101835.13;5088316;28;45289;-93
2021/08/28 06:16:36;;;;;;;;;7.00;4.33;;;;;16.37;61.66;101854.72;5100802;27;45371;-93
2021/08/28 06:19:02;;;;;;;;;6.00;3.00;;;;;16.39;61.46;101855.63;5079084;28;45464;-91
2021/08/28 06:21:27;;;;;;;;;5.00;4.67;;;;;16.27;61.51;101835.13;5095718;27;48119;-91
2021/08/28 06:23:56;;;;;;;;;5.67;3.00;;;;;16.33;61.69;101848.47;5095614;27;45818;-93
2021/08/28 06:26:22;;;;;;;;;4.00;3.33;;;;;16.35;61.67;101846.72;5079894;27;45303;-91
2021/08/28 06:28:47;;;;;;;;;5.33;4.00;;;;;16.25;61.26;101829.81;5078843;28;45683;-91
2021/08/28 06:31:13;;;;;;;;;7.00;3.67;;;;;16.41;61.68;101849.44;5095859;27;47149;-91
2021/08/28 06:33:38;;;;;;;;;6.67;4.67;;;;;16.40;61.77;101839.72;5077686;28;45596;-85
2021/08/28 06:36:03;;;;;;;;;8.33;4.00;;;;;16.53;61.50;101854.03;5078442;28;45527;-85
2021/08/28 06:38:31;;;;;;;;;5.00;5.00;;;;;16.59;61.54;101852.28;5078652;28;45241;-83
2021/08/28 06:40:58;;;;;;;;;7.33;4.00;;;;;16.63;61.39;101849.69;5090844;27;45298;-84
2021/08/28 06:43:25;;;;;;;;;7.00;4.00;;;;;16.74;61.63;101860.41;5098044;27;45414;-84
2021/08/28 06:45:50;;;;;;;;;9.33;4.00;;;;;16.80;61.11;101864.88;5097985;27;45337;-84
2021/08/28 06:48:15;;;;;;;;;5.00;3.67;;;;;16.85;61.21;101864.94;5098199;27;45321;-85
2021/08/28 06:50:41;;;;;;;;;5.00;4.33;;;;;16.84;61.38;101863.16;5098422;27;45255;-85
2021/08/28 06:53:07;;;;;;;;;6.00;5.00;;;;;16.91;61.29;101867.66;5098221;27;45245;-85
2021/08/28 06:55:33;;;;;;;;;6.00;5.00;;;;;16.94;61.23;101872.97;5098422;27;45214;-85
2021/08/28 06:57:58;;;;;;;;;6.00;3.00;;;;;16.97;61.01;101862.41;5098567;27;45333;-85
2021/08/28 07:00:24;;;;;;;;;7.00;4.00;;;;;17.00;61.36;101857.13;5079647;27;46457;-84
2021/08/28 07:02:49;;;;;;;;;1.00;0.00;;;;;17.07;61.24;101867.81;5098256;27;45419;-85
2021/08/28 07:05:14;;;;;;;;;5.67;5.00;;;;;17.09;61.29;101860.75;5098617;27;45372;-85
2021/08/28 07:07:41;;;;;;;;;7.00;4.33;;;;;17.15;61.18;101873.19;5098339;27;45311;-84
2021/08/28 07:10:07;;;;;;;;;8.33;5.00;;;;;17.20;60.86;101874.13;5098196;27;46083;-85
2021/08/28 07:12:32;;;;;;;;;5.33;3.00;;;;;17.23;60.96;101872.41;5097928;27;45469;-87
2021/08/28 07:14:57;;;;;;;;;7.00;4.00;;;;;17.24;60.77;101855.56;5098219;27;45451;-84
2021/08/28 07:17:23;;;;;;;;;4.00;4.00;;;;;17.35;60.69;101870.69;5099654;27;45273;-84
2021/08/28 07:19:48;;;;;;;;;7.00;5.67;;;;;17.35;60.86;101862.72;5102768;27;46264;-83
2021/08/28 07:22:14;;;;;;;;;4.67;4.00;;;;;17.45;60.84;101872.53;5084842;27;45414;-85
2021/08/28 07:24:39;;;;;;;;;5.00;4.00;;;;;17.51;60.61;101871.72;5100154;27;46154;-84
2021/08/28 07:27:05;;;;;;;;;6.67;4.00;;;;;17.54;60.84;101866.41;5099236;27;45592;-85
2021/08/28 07:29:31;;;;;;;;;7.00;5.33;;;;;17.66;60.64;101872.69;5079683;27;46056;-86
2021/08/28 07:31:56;;;;;;;;;5.67;4.00;;;;;17.74;60.78;101868.31;5079594;27;45568;-85
2021/08/28 07:34:22;;;;;;;;;6.00;4.00;;;;;17.83;60.62;101867.44;5097850;27;45680;-85
2021/08/28 07:36:47;;;;;;;;;5.67;5.00;;;;;17.95;60.48;101871.94;5098152;27;45243;-84
2021/08/28 07:39:13;;;;;;;;;6.00;6.00;;;;;18.03;60.40;101874.63;5097902;27;45821;-86
2021/08/28 07:41:38;;;;;;;;;6.33;3.67;;;;;18.13;60.35;101868.47;5097762;27;45370;-84
2021/08/28 07:44:04;;;;;;;;;7.00;6.00;;;;;18.21;60.21;101865.00;5098181;27;45313;-84
2021/08/28 07:46:29;;;;;;;;;7.33;6.33;;;;;18.30;60.24;101866.81;5097963;27;45477;-84
2021/08/28 07:48:55;;;;;;;;;6.00;5.00;;;;;18.39;60.32;101859.72;5097316;27;45915;-84
2021/08/28 07:51:20;;;;;;;;;5.33;4.00;;;;;18.48;59.99;101869.50;5097114;27;45331;-84
2021/08/28 07:53:45;;;;;;;;;7.00;5.00;;;;;18.56;59.85;101865.97;5097597;27;45331;-85
2021/08/28 07:56:11;;;;;;;;;5.00;4.00;;;;;18.63;59.52;101868.63;5079425;27;45413;-84
2021/08/28 07:58:36;;;;;;;;;5.33;5.33;;;;;18.68;59.56;101865.97;5097918;27;45427;-84
2021/08/28 08:01:02;;;;;;;;;5.67;5.00;;;;;18.77;59.24;101869.53;5096207;27;45416;-84
2021/08/28 08:03:28;;;;;;;;;6.67;5.33;;;;;18.79;59.26;101859.78;5097379;27;45399;-84
2021/08/28 08:05:53;;;;;;;;;6.00;4.67;;;;;18.91;59.20;101864.25;5097678;27;45403;-84
2021/08/28 08:08:19;;;;;;;;;6.33;5.33;;;;;18.94;58.71;101858.91;5079135;27;47704;-85
2021/08/28 08:10:44;;;;;;;;;7.00;5.00;;;;;19.02;58.94;101864.22;5098028;27;45442;-86
2021/08/28 08:13:09;;;;;;;;;6.33;4.67;;;;;19.05;59.00;101857.16;5098546;27;45456;-83
2021/08/28 08:15:35;;;;;;;;;8.00;4.67;;;;;19.14;59.03;101861.56;5098204;27;45247;-84
2021/08/28 08:18:00;;;;;;;;;5.67;5.33;;;;;19.25;58.80;101864.25;5096886;27;46214;-84
2021/08/28 08:20:26;;;;;;;;;6.00;4.67;;;;;19.34;58.71;101879.38;5096795;27;45207;-84
2021/08/28 08:22:53;;;;;;;;;4.00;4.00;;;;;19.32;58.23;101866.03;5096492;27;45480;-84
2021/08/28 08:25:18;;;;;;;;;6.33;5.00;;;;;19.43;58.44;101878.47;5097598;27;45224;-84
2021/08/28 08:27:44;;;;;;;;;6.00;3.33;;;;;19.40;58.32;101871.34;5098344;27;46918;-85
2021/08/28 08:30:10;;;;;;;;;6.00;5.33;;;;;19.45;59.24;101871.34;5100516;27;45412;-84
2021/08/28 08:32:35;;;;;;;;;4.67;3.00;;;;;19.42;59.53;101880.25;5100432;27;45422;-85
2021/08/28 08:35:01;;;;;;;;;8.33;5.00;;;;;19.44;60.22;101870.47;5100422;27;45471;-86
2021/08/28 08:37:27;;;;;;;;;11.33;5.33;;;;;19.38;60.01;101858.91;5099918;27;45450;-81
2021/08/28 08:39:52;;;;;;;;;5.67;5.67;;;;;19.42;60.11;101863.34;5100293;27;45406;-83
2021/08/28 08:42:22;;;;;;;;;5.67;4.33;;;;;19.40;60.13;101862.47;5100357;27;45350;-82
2021/08/28 08:44:48;;;;;;;;;6.33;6.00;;;;;19.42;60.48;101853.56;5100635;27;45394;-84
2021/08/28 08:47:15;;;;;;;;;6.00;5.00;;;;;19.47;60.01;101853.56;5100002;27;47072;-84
2021/08/28 08:49:41;;;;;;;;;6.00;4.00;;;;;19.60;59.89;101866.88;5100420;27;45388;-84
2021/08/28 08:52:07;;;;;;;;;6.00;5.00;;;;;19.66;59.94;101869.53;5100432;27;45418;-83
2021/08/28 08:54:33;;;;;;;;;7.00;5.00;;;;;19.73;59.69;101873.97;5100641;27;45433;-83
2021/08/28 08:56:59;;;;;;;;;6.67;6.00;;;;;19.77;59.72;101867.75;5100387;27;45513;-80
2021/08/28 08:59:24;;;;;;;;;6.00;5.00;;;;;19.86;59.84;101871.25;5100515;27;45399;-81
2021/08/28 09:01:50;;;;;;;;;7.00;5.00;;;;;19.94;59.69;101872.13;5100071;27;45279;-81
2021/08/28 09:04:15;;;;;;;;;5.33;5.00;;;;;20.02;58.86;101856.97;5100586;27;45366;-81
2021/08/28 09:06:46;;;;;;;;;7.00;4.67;;;;;20.14;59.08;101863.16;5100244;27;46127;-82
2021/08/28 09:09:13;;;;;;;;;7.00;5.00;;;;;20.23;58.58;101873.81;5099922;27;45420;-83
2021/08/28 09:11:38;;;;;;;;;5.00;5.00;;;;;20.30;58.39;101866.66;5099935;27;45320;-81
2021/08/28 09:14:21;;;;;;;;;5.67;3.67;;;;;20.34;58.28;101870.19;5100045;27;45321;-82
2021/08/28 09:16:49;;;;;;;;;5.00;4.00;;;;;20.41;57.97;101871.06;5099949;27;45401;-82
2021/08/28 09:19:15;;;;;;;;;2.67;2.33;;;;;20.54;56.88;101867.41;5099283;27;45431;-82
2021/08/28 09:21:41;;;;;;;;;5.00;4.00;;;;;20.65;56.89;101875.34;5099400;27;45464;-81
2021/08/28 09:24:09;;;;;;;;;4.33;4.00;;;;;20.72;56.70;101870.84;5099532;27;45386;-82
2021/08/28 09:26:39;;;;;;;;;4.67;4.00;;;;;20.83;56.79;101870.78;5099497;27;45436;-81
2021/08/28 09:29:07;;;;;;;;;5.67;4.00;;;;;20.98;56.00;101876.94;5099312;27;45362;-82
2021/08/28 09:31:37;;;;;;;;;4.33;4.33;;;;;21.21;56.31;101875.84;5099100;27;45425;-83
2021/08/28 09:34:35;;;;;;;;;4.00;3.33;;;;;21.42;55.64;101874.75;5099319;27;45776;-82
2021/08/28 09:37:03;;;;;;;;;4.00;4.00;;;;;21.50;54.96;101880.91;4996166;28;45584;-83
2021/08/28 09:39:42;;;;;;;;;8.00;4.00;;;;;21.62;54.98;101877.22;5007330;28;45369;-82
2021/08/28 09:42:27;;;;;;;;;6.67;5.67;;;;;21.89;55.10;101881.44;5016523;28;45407;-81
2021/08/28 09:44:53;;;;;;;;;4.33;4.00;;;;;22.16;54.56;101874.84;5016719;28;45983;-86
2021/08/28 09:47:22;;;;;;;;;6.33;5.00;;;;;22.46;54.09;101873.56;5015771;28;46379;-82
2021/08/28 09:49:51;;;;;;;;;5.67;4.00;;;;;22.65;53.04;101879.53;5016073;28;45420;-82
2021/08/28 09:52:20;;;;;;;;;4.00;4.00;;;;;22.70;52.62;101877.66;5015219;28;45468;-82
2021/08/28 09:54:47;;;;;;;;;4.33;3.00;;;;;22.75;52.41;101874.94;5016136;28;45349;-83
2021/08/28 09:57:12;;;;;;;;;6.33;4.00;;;;;22.72;52.51;101869.59;4999097;28;46112;-81
2021/08/28 09:59:38;;;;;;;;;3.67;3.67;;;;;22.64;51.49;101873.28;5015988;28;45376;-82
2021/08/28 10:02:09;;;;;;;;;4.33;3.67;;;;;22.58;52.46;101872.47;5016449;28;45375;-84
2021/08/28 10:04:52;;;;;;;;;4.33;4.00;;;;;22.60;52.21;101870.66;5016376;28;45595;-82
2021/08/28 10:07:28;;;;;;;;;4.33;3.33;;;;;22.65;52.51;101866.13;5015436;28;45980;-82
2021/08/28 10:09:59;;;;;;;;;4.33;4.00;;;;;22.85;52.04;101870.28;5015716;28;45500;-81
2021/08/28 10:12:24;;;;;;;;;5.00;4.00;;;;;23.20;51.42;101859.91;5050270;27;46180;-83
2021/08/28 10:14:55;;;;;;;;;5.33;4.00;;;;;23.47;51.90;101865.69;5099064;27;45320;-82
2021/08/28 10:17:22;;;;;;;;;4.33;4.33;;;;;23.65;51.36;101871.63;5098405;27;46366;-83
2021/08/28 10:19:50;;;;;;;;;4.00;4.00;;;;;23.75;50.88;101866.94;5098693;27;45282;-83
2021/08/28 10:22:20;;;;;;;;;3.00;3.00;;;;;23.79;50.62;101874.03;5098501;27;45418;-81
2021/08/28 10:24:48;;;;;;;;;5.33;3.33;;;;;23.70;49.82;101870.63;5098721;27;45554;-81
2021/08/28 10:27:14;;;;;;;;;3.67;3.00;;;;;23.70;49.21;101872.41;5098122;27;46347;-79
2021/08/28 10:29:40;;;;;;;;;3.33;2.00;;;;;23.63;49.44;101868.06;5098251;27;45366;-81
2021/08/28 10:32:05;;;;;;;;;3.00;3.00;;;;;23.65;49.96;101856.38;5098724;27;45410;-82
2021/08/28 10:34:32;;;;;;;;;3.00;3.00;;;;;23.69;49.69;101870.66;5098255;27;45456;-80
2021/08/28 10:36:58;;;;;;;;;4.67;4.00;;;;;23.67;49.92;101864.44;5097852;27;45966;-81
2021/08/28 10:39:24;;;;;;;;;6.00;3.00;;;;;23.66;49.38;101871.59;5097936;27;45358;-82
2021/08/28 10:41:51;;;;;;;;;3.33;3.33;;;;;23.60;49.46;101869.03;5098066;27;45327;-81
2021/08/28 10:44:17;;;;;;;;;6.33;4.67;;;;;23.54;49.06;101874.50;5098866;27;45224;-81
2021/08/28 10:46:42;;;;;;;;;8.00;3.33;;;;;23.47;48.59;101871.94;5097554;27;45600;-81
2021/08/28 10:49:10;;;;;;;;;6.00;3.00;;;;;23.45;48.65;101870.16;5098223;27;45235;-81
2021/08/28 10:51:40;;;;;;;;;5.67;4.00;;;;;23.42;49.22;101868.41;5097842;27;45321;-81
2021/08/28 10:54:07;;;;;;;;;3.00;2.00;;;;;23.46;48.63;101874.63;5098569;27;45263;-82
2021/08/28 10:56:51;;;;;;;;;4.33;4.00;;;;;23.46;48.71;101859.44;5097828;27;45667;-82
2021/08/28 10:59:22;;;;;;;;;3.67;2.00;;;;;23.53;48.67;101860.22;5098080;27;45263;-82
2021/08/28 11:02:00;;;;;;;;;5.33;2.33;;;;;23.66;48.11;101859.97;5097951;27;45380;-82
2021/08/28 11:04:32;;;;;;;;;4.67;3.00;;;;;23.73;47.76;101863.41;5098095;27;45315;-81
2021/08/28 11:07:20;;;;;;;;;4.00;4.00;;;;;23.73;47.68;101858.03;5097806;27;45339;-81
2021/08/28 11:10:05;;;;;;;;;5.00;4.00;;;;;23.68;47.97;101871.56;5097615;27;45408;-82
2021/08/28 11:12:52;;;;;;;;;7.00;4.33;;;;;23.63;47.77;101866.28;5079073;27;45418;-82
2021/08/28 11:15:24;;;;;;;;;4.00;3.00;;;;;23.63;47.85;101865.38;5098297;27;45409;-82
2021/08/28 11:17:49;;;;;;;;;4.00;3.00;;;;;23.62;48.23;101861.84;5097454;27;46423;-82
2021/08/28 11:20:25;;;;;;;;;5.33;4.00;;;;;23.69;47.75;101860.78;5097584;27;45304;-83
2021/08/28 11:22:51;;;;;;;;;5.00;4.00;;;;;23.83;47.77;101848.88;5097374;27;45242;-82
2021/08/28 11:25:22;;;;;;;;;3.67;3.67;;;;;24.09;48.25;101860.88;5097517;27;45458;-81
2021/08/28 11:27:56;;;;;;;;;4.67;4.00;;;;;24.34;48.03;101859.47;5079033;27;46706;-81
2021/08/28 11:30:46;;;;;;;;;5.00;3.00;;;;;24.49;46.51;101852.88;5097577;27;45382;-80
2021/08/28 11:33:30;;;;;;;;;5.00;3.33;;;;;24.57;46.78;101858.03;5097583;27;45420;-82